createdAt,value
2018-01-22T00:01:39.197Z,16.57
2018-01-22T00:04:07.079Z,18.20
2018-01-22T00:06:35.742Z,13.93
2018-01-22T00:09:03.546Z,14.80
2018-01-22T00:11:32.167Z,15.80
2018-01-22T00:14:00.027Z,16.20
2018-01-22T00:16:27.778Z,16.60
2018-01-22T00:18:56.299Z,14.67
2018-01-22T00:21:24.140Z,16.97
2018-01-22T00:23:51.943Z,14.73
2018-01-22T00:26:19.678Z,14.33
2018-01-22T00:28:47.467Z,13.80
2018-01-22T00:31:16.212Z,15.87
2018-01-22T00:33:44.755Z,16.00
2018-01-22T00:36:12.498Z,15.00
2018-01-22T00:38:40.331Z,13.60
2018-01-22T00:41:08.090Z,13.30
2018-01-22T00:43:35.980Z,16.63
2018-01-22T00:46:03.778Z,13.20
2018-01-22T00:48:31.530Z,14.67
2018-01-22T00:50:59.260Z,14.90
2018-01-22T00:53:27.784Z,14.67
2018-01-22T00:55:55.569Z,13.17
2018-01-22T00:58:23.413Z,14.20
2018-01-22T01:00:51.230Z,13.10
2018-01-22T01:03:19.004Z,18.80
2018-01-22T01:05:46.838Z,12.80
2018-01-22T01:08:14.633Z,12.77
2018-01-22T01:10:42.450Z,12.53
2018-01-22T01:13:10.210Z,12.50
2018-01-22T01:15:38.070Z,14.03
2018-01-22T01:18:07.237Z,11.00
2018-01-22T01:20:35.059Z,13.27
2018-01-22T01:23:02.903Z,13.67
2018-01-22T01:25:30.736Z,13.53
2018-01-22T01:27:58.549Z,14.40
2018-01-22T01:30:26.287Z,16.43
2018-01-22T01:32:54.832Z,11.57
2018-01-22T01:35:22.622Z,12.67
2018-01-22T01:37:50.439Z,14.57
2018-01-22T01:40:18.273Z,13.63
2018-01-22T01:42:46.886Z,12.37
2018-01-22T01:45:14.703Z,13.70
2018-01-22T01:47:42.459Z,12.60
2018-01-22T01:50:10.192Z,14.50
2018-01-22T01:52:38.020Z,13.40
2018-01-22T01:55:05.793Z,12.77
2018-01-22T01:57:34.300Z,12.80
2018-01-22T02:00:02.070Z,12.53
2018-01-22T02:02:29.939Z,14.70
2018-01-22T02:04:57.779Z,14.80
2018-01-22T02:07:25.617Z,12.27
2018-01-22T02:09:53.372Z,12.00
2018-01-22T02:12:21.184Z,12.63
2018-01-22T02:14:48.954Z,13.00
2018-01-22T02:17:16.723Z,16.10
2018-01-22T02:19:44.640Z,12.20
2018-01-22T02:22:12.462Z,13.07
2018-01-22T02:24:40.999Z,12.77
2018-01-22T02:27:08.826Z,14.77
2018-01-22T02:29:36.571Z,12.60
2018-01-22T02:32:04.389Z,13.10
2018-01-22T02:34:32.233Z,12.17
2018-01-22T02:36:59.970Z,12.10
2018-01-22T02:39:27.739Z,12.80
2018-01-22T02:41:55.512Z,15.83
2018-01-22T02:44:24.074Z,12.60
2018-01-22T02:46:51.855Z,13.20
2018-01-22T02:49:19.702Z,12.80
2018-01-22T02:51:47.506Z,14.53
2018-01-22T02:54:16.091Z,11.40
2018-01-22T02:56:43.940Z,11.93
2018-01-22T02:59:11.745Z,13.43
2018-01-22T03:01:39.518Z,13.23
2018-01-22T03:04:07.336Z,13.57
2018-01-22T03:06:35.127Z,13.30
2018-01-22T03:09:03.689Z,15.23
2018-01-22T03:11:31.609Z,11.90
2018-01-22T03:13:59.455Z,12.80
2018-01-22T03:16:27.360Z,17.33
2018-01-22T03:18:55.257Z,14.53
2018-01-22T03:21:23.081Z,14.20
2018-01-22T03:23:50.868Z,13.90
2018-01-22T03:26:18.631Z,13.00
2018-01-22T03:28:46.449Z,14.73
2018-01-22T03:31:15.040Z,13.47
2018-01-22T03:33:42.848Z,14.33
2018-01-22T03:36:10.593Z,15.67
2018-01-22T03:38:38.408Z,14.57
2018-01-22T03:41:06.233Z,13.97
2018-01-22T03:43:33.997Z,15.80
2018-01-22T03:46:01.748Z,14.90
2018-01-22T03:48:30.276Z,16.70
2018-01-22T03:50:58.035Z,15.80
2018-01-22T03:53:25.813Z,15.07
2018-01-22T03:55:54.405Z,21.40
2018-01-22T03:58:22.150Z,14.30
2018-01-22T04:00:49.985Z,18.70
2018-01-22T04:03:17.884Z,18.83
2018-01-22T04:05:45.672Z,22.90
2018-01-22T04:08:13.505Z,15.37
2018-01-22T04:10:41.306Z,16.50
2018-01-22T04:13:09.152Z,16.67
2018-01-22T04:15:36.948Z,17.67
2018-01-22T04:18:04.760Z,16.60
2018-01-22T04:20:33.084Z,16.13
2018-01-22T04:23:00.966Z,16.33
2018-01-22T04:25:28.808Z,18.57
2018-01-22T04:27:56.555Z,16.57
2018-01-22T04:30:25.141Z,19.10
2018-01-22T04:32:52.988Z,16.37
2018-01-22T04:35:20.817Z,16.47
2018-01-22T04:37:49.613Z,16.43
2018-01-22T04:40:17.480Z,15.80
2018-01-22T04:42:45.222Z,20.27
2018-01-22T04:45:13.051Z,16.43
2018-01-22T04:47:40.849Z,18.47
2018-01-22T04:50:08.639Z,16.60
2018-01-22T04:52:36.461Z,18.00
2018-01-22T04:55:04.278Z,17.20
2018-01-22T04:57:32.820Z,18.90
2018-01-22T05:00:01.399Z,15.00
2018-01-22T05:02:29.211Z,17.83
2018-01-22T05:04:57.013Z,16.37
2018-01-22T05:07:24.780Z,16.90
2018-01-22T05:09:52.531Z,21.97
2018-01-22T05:12:20.312Z,17.00
2018-01-22T05:14:48.080Z,16.13
2018-01-22T05:17:15.942Z,18.97
2018-01-22T05:19:43.804Z,18.93
2018-01-22T05:22:11.608Z,15.20
2018-01-22T05:24:39.376Z,16.47
2018-01-22T05:27:07.197Z,18.00
2018-01-22T05:29:35.927Z,18.73
2018-01-22T05:32:03.714Z,18.57
2018-01-22T05:34:31.504Z,17.17
2018-01-22T05:36:59.375Z,16.03
2018-01-22T05:39:27.304Z,15.20
2018-01-22T05:41:55.192Z,14.07
2018-01-22T05:44:22.997Z,13.97
2018-01-22T05:46:50.898Z,14.43
2018-01-22T05:49:18.789Z,14.00
2018-01-22T05:51:46.740Z,12.77
2018-01-22T05:54:14.601Z,12.47
2018-01-22T05:56:42.506Z,11.87
2018-01-22T05:59:11.402Z,13.23
2018-01-22T06:01:39.272Z,12.00
2018-01-22T06:04:07.186Z,12.50
2018-01-22T06:06:35.164Z,12.50
2018-01-22T06:09:03.210Z,13.67
2018-01-22T06:11:32.215Z,15.00
2018-01-22T06:14:00.078Z,12.10
2018-01-22T06:16:27.984Z,14.80
2018-01-22T06:18:55.869Z,13.13
2018-01-22T06:21:23.793Z,11.90
2018-01-22T06:23:51.661Z,14.20
2018-01-22T06:26:19.596Z,16.60
2018-01-22T06:28:47.461Z,11.80
2018-01-22T06:31:15.322Z,13.57
2018-01-22T06:33:43.287Z,20.27
2018-01-22T06:36:11.892Z,14.77
2018-01-22T06:38:39.866Z,15.90
2018-01-22T06:41:08.363Z,13.47
2018-01-22T06:43:36.296Z,12.40
2018-01-22T06:46:04.185Z,12.23
2018-01-22T06:48:32.036Z,12.33
2018-01-22T06:51:00.644Z,13.80
2018-01-22T06:53:28.959Z,12.10
2018-01-22T06:55:56.871Z,12.33
2018-01-22T06:58:25.590Z,17.30
2018-01-22T07:00:53.514Z,16.23
2018-01-22T07:03:21.408Z,13.33
2018-01-22T07:05:50.886Z,14.20
2018-01-22T07:08:18.782Z,14.70
2018-01-22T07:10:47.477Z,25.10
2018-01-22T07:13:16.372Z,27.83
2018-01-22T07:15:44.429Z,19.00
2018-01-22T07:18:12.709Z,15.27
2018-01-22T07:20:41.391Z,11.80
2018-01-22T07:23:43.513Z,19.80
2018-01-22T07:26:11.450Z,15.70
2018-01-22T07:28:40.791Z,16.37
2018-01-22T07:31:08.638Z,17.73
2018-01-22T07:33:36.582Z,17.63
2018-01-22T07:36:04.471Z,12.70
2018-01-22T07:38:32.369Z,15.87
2018-01-22T07:41:00.333Z,15.50
2018-01-22T07:43:28.329Z,18.80
2018-01-22T07:45:56.270Z,11.60
2018-01-22T07:48:25.331Z,13.10
2018-01-22T07:50:53.488Z,12.70
2018-01-22T07:53:21.759Z,17.10
2018-01-22T07:55:49.780Z,10.67
2018-01-22T07:58:17.647Z,13.80
2018-01-22T08:00:46.311Z,11.07
2018-01-22T08:03:30.658Z,12.37
2018-01-22T08:05:58.859Z,11.10
2018-01-22T08:08:28.372Z,11.33
2018-01-22T08:10:56.207Z,10.73
2018-01-22T08:13:24.173Z,11.57
2018-01-22T08:15:52.285Z,13.77
2018-01-22T08:18:20.193Z,10.77
2018-01-22T08:20:48.171Z,16.23
2018-01-22T08:23:16.113Z,11.90
2018-01-22T08:29:53.602Z,14.77
2018-01-22T08:32:21.452Z,20.20
2018-01-22T08:34:49.317Z,14.13
2018-01-22T08:37:17.189Z,20.47
2018-01-22T08:39:45.055Z,19.40
2018-01-22T08:42:12.940Z,16.00
2018-01-22T08:44:40.999Z,17.00
2018-01-22T08:47:08.973Z,15.80
2018-01-22T08:49:36.937Z,27.33
2018-01-22T08:52:04.905Z,29.30
2018-01-22T08:54:33.132Z,23.03
2018-01-22T08:57:01.551Z,25.10
2018-01-22T08:59:29.486Z,29.97
2018-01-22T09:01:57.402Z,30.07
2018-01-22T09:04:25.254Z,31.53
2018-01-22T09:06:53.322Z,31.17
2018-01-22T09:09:21.558Z,28.40
2018-01-22T09:11:49.479Z,31.37
2018-01-22T09:14:17.341Z,30.23
2018-01-22T09:16:46.187Z,32.37
2018-01-22T09:19:14.096Z,30.80
2018-01-22T09:21:41.964Z,35.13
2018-01-22T09:24:09.833Z,33.93
2018-01-22T09:26:37.696Z,32.30
2018-01-22T09:29:05.556Z,32.23
2018-01-22T09:31:34.049Z,30.93
2018-01-22T09:34:02.015Z,39.13
2018-01-22T09:36:30.086Z,29.27
2018-01-22T09:38:58.135Z,31.23
2018-01-22T09:41:26.119Z,32.43
2018-01-22T09:43:54.913Z,35.60
2018-01-22T09:46:22.781Z,35.10
2018-01-22T09:48:50.747Z,35.37
2018-01-22T09:51:18.611Z,34.97
2018-01-22T09:53:46.478Z,33.27
2018-01-22T09:56:14.340Z,34.70
2018-01-22T09:58:42.208Z,36.37
2018-01-22T10:01:10.073Z,35.57
2018-01-22T10:03:37.940Z,38.50
2018-01-22T10:06:05.805Z,38.97
2018-01-22T10:08:33.885Z,37.77
2018-01-22T10:11:01.844Z,37.43
2018-01-22T10:13:29.712Z,41.27
2018-01-22T10:15:57.593Z,37.60
2018-01-22T10:18:25.664Z,40.10
2018-01-22T10:20:54.039Z,36.40
2018-01-22T10:23:23.437Z,36.63
2018-01-22T10:25:51.507Z,32.83
2018-01-22T10:28:20.713Z,37.93
2018-01-22T10:30:48.775Z,39.37
2018-01-22T10:33:16.644Z,38.13
2018-01-22T10:35:45.426Z,36.93
2018-01-22T10:38:13.394Z,42.57
2018-01-22T10:40:41.262Z,37.27
2018-01-22T10:43:09.128Z,35.33
2018-01-22T10:45:36.993Z,35.50
2018-01-22T10:48:04.868Z,35.67
2018-01-22T10:50:32.730Z,33.73
2018-01-22T10:53:01.412Z,34.37
2018-01-22T10:55:29.280Z,36.70
2018-01-22T10:57:57.153Z,39.90
2018-01-22T11:00:25.123Z,35.13
2018-01-22T11:02:53.025Z,37.50
2018-01-22T11:05:21.724Z,30.90
2018-01-22T11:07:49.647Z,39.93
2018-01-22T11:10:17.500Z,36.70
2018-01-22T11:12:45.686Z,37.10
2018-01-22T11:15:14.363Z,35.90
2018-01-22T11:17:42.227Z,37.10
2018-01-22T11:20:10.212Z,35.67
2018-01-22T11:22:38.215Z,39.57
2018-01-22T11:25:06.031Z,38.20
2018-01-22T11:27:33.898Z,42.27
2018-01-22T11:30:01.875Z,41.70
2018-01-22T11:32:29.741Z,37.47
2018-01-22T11:34:58.426Z,33.53
2018-01-22T11:37:26.287Z,36.13
2018-01-22T11:39:54.151Z,37.77
2018-01-22T11:42:22.025Z,40.53
2018-01-22T11:44:49.887Z,38.93
2018-01-22T11:47:17.862Z,36.80
2018-01-22T11:49:45.832Z,34.73
2018-01-22T11:52:14.510Z,36.90
2018-01-22T11:54:42.384Z,39.33
2018-01-22T11:57:10.240Z,41.00
2018-01-22T11:59:38.108Z,38.07
2018-01-22T12:02:06.085Z,38.90
2018-01-22T12:04:33.942Z,42.80
2018-01-22T12:07:01.811Z,33.67
2018-01-22T12:09:29.676Z,33.93
2018-01-22T12:11:57.555Z,31.07
2018-01-22T12:14:25.626Z,32.00
2018-01-22T12:16:53.590Z,29.73
2018-01-22T12:19:21.459Z,28.87
2018-01-22T12:21:49.324Z,30.67
2018-01-22T12:24:17.294Z,32.60
2018-01-22T12:26:45.150Z,37.03
2018-01-22T12:29:13.016Z,32.80
2018-01-22T12:31:40.885Z,32.23
2018-01-22T12:34:08.860Z,30.47
2018-01-22T12:36:36.725Z,31.23
2018-01-22T12:39:04.688Z,30.63
2018-01-22T12:41:32.561Z,37.70
2018-01-22T12:44:00.633Z,32.90
2018-01-22T12:46:28.491Z,30.00
2018-01-22T12:48:56.359Z,29.13
2018-01-22T12:51:24.223Z,27.13
2018-01-22T12:53:52.092Z,27.17
2018-01-22T12:56:20.089Z,29.83
2018-01-22T12:58:48.746Z,27.10
2018-01-22T13:01:17.138Z,27.07
2018-01-22T13:03:45.102Z,30.43
2018-01-22T13:06:13.788Z,33.40
2018-01-22T13:08:41.654Z,28.73
2018-01-22T13:11:09.511Z,29.73
2018-01-22T13:13:37.490Z,31.07
2018-01-22T13:16:06.942Z,30.07
2018-01-22T13:18:34.852Z,29.20
2018-01-22T13:21:02.723Z,29.07
2018-01-22T13:23:30.585Z,30.43
2018-01-22T13:25:58.563Z,31.00
2018-01-22T13:28:26.419Z,28.80
2018-01-22T13:30:54.289Z,28.07
2018-01-22T13:33:22.530Z,36.80
2018-01-22T13:35:50.642Z,28.20
2018-01-22T13:38:19.342Z,31.90
2018-01-22T13:40:54.168Z,26.73
2018-01-22T13:43:22.425Z,26.03
2018-01-22T13:45:50.710Z,29.70
2018-01-22T13:48:18.570Z,29.30
2018-01-22T13:50:46.434Z,28.10
2018-01-22T13:53:14.405Z,31.23
2018-01-22T13:55:42.281Z,32.43
2018-01-22T13:58:10.247Z,27.53
2018-01-22T14:00:38.213Z,29.60
2018-01-22T14:03:06.185Z,34.77
2018-01-22T14:05:34.159Z,31.20
2018-01-22T14:08:02.320Z,29.03
2018-01-22T14:10:30.191Z,31.03
2018-01-22T14:12:58.060Z,33.07
2018-01-22T14:15:26.851Z,27.90
2018-01-22T14:17:54.821Z,29.83
2018-01-22T14:20:22.675Z,26.53
2018-01-22T14:22:50.550Z,27.80
2018-01-22T14:25:18.408Z,28.90
2018-01-22T14:27:46.384Z,27.40
2018-01-22T14:30:14.352Z,28.83
2018-01-22T14:32:42.325Z,29.93
2018-01-22T14:35:10.294Z,25.37
2018-01-22T14:37:38.577Z,29.83
2018-01-22T14:40:06.539Z,28.10
2018-01-22T14:42:34.509Z,30.83
2018-01-22T14:45:03.186Z,32.50
2018-01-22T14:47:31.272Z,30.40
2018-01-22T14:49:59.838Z,30.07
2018-01-22T14:52:27.703Z,30.40
2018-01-22T14:54:55.579Z,28.33
2018-01-22T14:57:23.550Z,28.27
2018-01-22T14:59:51.516Z,27.23
2018-01-22T15:02:19.386Z,27.00
2018-01-22T15:04:47.242Z,27.67
2018-01-22T15:07:15.109Z,27.83
2018-01-22T15:09:42.982Z,28.23
2018-01-22T15:12:10.953Z,28.70
2018-01-22T15:14:38.809Z,28.60
2018-01-22T15:17:06.677Z,29.10
2018-01-22T15:19:34.544Z,37.67
2018-01-22T15:22:02.520Z,30.57
2018-01-22T15:24:30.378Z,28.33
2018-01-22T15:26:58.253Z,30.20
2018-01-22T15:29:26.215Z,29.87
2018-01-22T15:31:54.078Z,30.47
2018-01-22T15:34:22.054Z,28.90
2018-01-22T15:36:49.916Z,28.43
2018-01-22T15:39:17.794Z,27.93
2018-01-22T15:41:46.268Z,29.00
2018-01-22T15:44:14.238Z,27.07
2018-01-22T15:46:42.099Z,29.37
2018-01-22T15:49:09.862Z,30.10
2018-01-22T15:51:37.832Z,27.40
2018-01-22T15:54:05.807Z,30.30
2018-01-22T15:56:35.839Z,28.97
2018-01-22T15:59:05.203Z,35.30
2018-01-22T16:01:33.092Z,27.97
2018-01-22T16:04:03.068Z,33.67
2018-01-22T16:06:31.897Z,29.07
2018-01-22T16:08:59.869Z,33.23
2018-01-22T16:11:28.545Z,27.27
2018-01-22T16:13:56.625Z,26.00
2018-01-22T16:16:24.594Z,28.10
2018-01-22T16:18:52.572Z,31.10
2018-01-22T16:21:20.634Z,26.40
2018-01-22T16:23:48.506Z,28.93
2018-01-22T16:26:16.358Z,24.97
2018-01-22T16:28:44.233Z,29.60
2018-01-22T16:31:12.306Z,34.97
2018-01-22T16:33:42.723Z,38.33
2018-01-22T16:36:11.454Z,32.73
2018-01-22T16:38:39.335Z,39.90
2018-01-22T16:41:07.242Z,30.90
2018-01-22T16:43:35.221Z,36.40
2018-01-22T16:46:03.395Z,31.50
2018-01-22T16:48:31.361Z,33.67
2018-01-22T16:50:59.220Z,37.47
2018-01-22T16:53:27.089Z,34.57
2018-01-22T16:55:55.376Z,31.47
2018-01-22T16:58:23.513Z,32.90
2018-01-22T17:00:51.405Z,36.33
2018-01-22T17:03:19.374Z,40.43
2018-01-22T17:05:47.351Z,36.20
2018-01-22T17:08:15.317Z,42.20
2018-01-22T17:10:43.188Z,37.27
2018-01-22T17:13:11.042Z,37.63
2018-01-22T17:15:38.912Z,39.20
2018-01-22T17:18:07.422Z,35.53
2018-01-22T17:20:36.185Z,36.90
2018-01-22T17:23:04.056Z,35.87
2018-01-22T17:25:31.912Z,38.80
2018-01-22T17:27:59.881Z,36.20
2018-01-22T17:30:27.746Z,35.90
2018-01-22T17:32:55.622Z,38.40
2018-01-22T17:35:23.592Z,39.27
2018-01-22T17:37:51.457Z,42.00
2018-01-22T17:40:19.269Z,38.17
2018-01-22T17:42:47.184Z,42.70
2018-01-22T17:45:15.357Z,44.20
2018-01-22T17:47:44.282Z,50.00
2018-01-22T17:50:13.268Z,44.77
2018-01-22T17:52:41.217Z,42.77
2018-01-22T17:55:09.177Z,47.93
2018-01-22T17:57:37.146Z,58.60
2018-01-22T18:00:05.172Z,64.40
2018-01-22T18:02:33.291Z,43.30
2018-01-22T18:05:01.166Z,48.20
2018-01-22T18:07:29.134Z,49.00
2018-01-22T18:09:57.408Z,38.83
2018-01-22T18:12:25.269Z,47.57
2018-01-22T18:14:53.135Z,44.13
2018-01-22T18:17:21.615Z,46.40
2018-01-22T18:19:49.797Z,41.27
2018-01-22T18:22:17.656Z,42.20
2018-01-22T18:24:45.735Z,41.53
2018-01-22T18:27:13.592Z,42.63
2018-01-22T18:29:41.472Z,38.47
2018-01-22T18:32:10.148Z,38.83
2018-01-22T18:34:38.113Z,43.47
2018-01-22T18:37:06.083Z,43.20
2018-01-22T18:39:33.949Z,45.30
2018-01-22T18:42:02.431Z,42.63
2018-01-22T18:44:30.308Z,48.80
2018-01-22T18:46:58.172Z,44.67
2018-01-22T18:49:27.505Z,52.10
2018-01-22T18:51:56.148Z,46.83
2018-01-22T18:54:24.026Z,44.00
2018-01-22T18:56:52.094Z,52.77
2018-01-22T18:59:20.065Z,49.13
2018-01-22T19:01:47.933Z,42.20
2018-01-22T19:04:15.788Z,46.50
2018-01-22T19:06:44.310Z,43.13
2018-01-22T19:09:13.063Z,45.17
2018-01-22T19:11:42.044Z,44.87
2018-01-22T19:14:09.925Z,39.93
2018-01-22T19:16:37.750Z,47.97
2018-01-22T19:19:05.759Z,46.23
2018-01-22T19:21:38.332Z,45.43
2018-01-22T19:24:06.195Z,40.90
2018-01-22T19:26:34.173Z,41.33
2018-01-22T19:29:02.749Z,43.37
2018-01-22T19:31:30.625Z,46.60
2018-01-22T19:33:58.487Z,41.13
2018-01-22T19:36:27.164Z,42.27
2018-01-22T19:38:55.456Z,39.93
2018-01-22T19:41:24.489Z,40.37
2018-01-22T19:43:52.722Z,45.80
2018-01-22T19:46:21.402Z,42.43
2018-01-22T19:48:50.535Z,44.70
2018-01-22T19:51:18.978Z,44.17
2018-01-22T19:53:48.077Z,49.63
2018-01-22T19:56:18.862Z,48.63
2018-01-22T19:58:47.982Z,47.00
2018-01-22T20:01:18.185Z,47.87
2018-01-22T20:03:48.621Z,51.77
2018-01-22T20:06:17.238Z,54.43
2018-01-22T20:08:48.410Z,41.47
2018-01-22T20:11:19.427Z,45.07
2018-01-22T20:13:52.390Z,42.07
2018-01-22T20:16:24.035Z,39.60
2018-01-22T20:18:56.313Z,41.90
2018-01-22T20:21:28.304Z,40.33
2018-01-22T20:23:59.755Z,40.53
2018-01-22T20:26:34.027Z,42.57
2018-01-22T20:29:05.986Z,44.67
2018-01-22T20:31:36.529Z,46.27
2018-01-22T20:34:08.448Z,44.03
2018-01-22T20:36:41.401Z,42.60
2018-01-22T20:39:14.178Z,40.63
2018-01-22T20:41:44.811Z,42.83
2018-01-22T20:44:13.995Z,45.87
2018-01-22T20:46:41.977Z,44.60
2018-01-22T20:49:11.655Z,43.50
2018-01-22T20:51:41.418Z,45.13
2018-01-22T20:54:12.442Z,47.33
2018-01-22T20:56:41.628Z,41.00
2018-01-22T20:59:10.116Z,44.50
2018-01-22T21:01:40.643Z,46.20
2018-01-22T21:04:12.634Z,38.80
2018-01-22T21:06:43.931Z,42.07
2018-01-22T21:09:12.232Z,36.97
2018-01-22T21:11:41.424Z,37.90
2018-01-22T21:14:09.907Z,41.03
2018-01-22T21:16:37.876Z,40.93
2018-01-22T21:19:06.640Z,37.07
2018-01-22T21:21:35.453Z,37.23
2018-01-22T21:24:05.884Z,41.50
2018-01-22T21:26:36.302Z,38.30
2018-01-22T21:29:04.173Z,49.07
2018-01-22T21:31:32.039Z,38.57
2018-01-22T21:34:00.117Z,39.13
2018-01-22T21:36:29.011Z,41.30
2018-01-22T21:38:57.089Z,42.37
2018-01-22T21:41:25.865Z,38.40
2018-01-22T21:43:55.484Z,35.80
2018-01-22T21:46:23.333Z,35.70
2018-01-22T21:48:51.209Z,44.00
2018-01-22T21:51:19.183Z,36.27
2018-01-22T21:53:47.049Z,34.10
2018-01-22T21:56:14.910Z,39.40
2018-01-22T21:58:42.980Z,39.17
2018-01-22T22:01:10.848Z,37.93
2018-01-22T22:03:38.716Z,35.00
2018-01-22T22:06:06.892Z,37.10
2018-01-22T22:08:35.668Z,36.27
2018-01-22T22:11:03.535Z,37.93
2018-01-22T22:13:31.402Z,37.40
2018-01-22T22:15:59.267Z,38.80
2018-01-22T22:18:27.749Z,34.93
2018-01-22T22:20:55.717Z,41.63
2018-01-22T22:23:23.688Z,39.93
2018-01-22T22:25:51.664Z,44.00
2018-01-22T22:28:19.520Z,36.43
2018-01-22T22:30:47.387Z,32.60
2018-01-22T22:33:15.363Z,33.87
2018-01-22T22:35:43.232Z,35.07
2018-01-22T22:38:11.090Z,32.73
2018-01-22T22:40:38.955Z,33.67
2018-01-22T22:43:06.830Z,33.50
2018-01-22T22:45:34.791Z,35.77
2018-01-22T22:48:03.603Z,34.80
2018-01-22T22:50:35.334Z,43.60
2018-01-22T22:55:37.010Z,31.77
2018-01-22T22:58:04.884Z,30.43
2018-01-22T23:00:32.744Z,33.87
2018-01-22T23:03:00.608Z,29.90
2018-01-22T23:05:28.474Z,31.80
2018-01-22T23:07:56.342Z,30.90
2018-01-22T23:10:24.320Z,32.37
2018-01-22T23:12:52.180Z,30.00
2018-01-22T23:15:19.966Z,35.60
2018-01-22T23:17:47.698Z,31.93
2018-01-22T23:20:15.442Z,31.70
2018-01-22T23:22:43.267Z,28.77
2018-01-22T23:25:11.064Z,31.50
2018-01-22T23:27:38.868Z,31.03
2018-01-22T23:30:06.641Z,31.60
2018-01-22T23:32:34.422Z,25.43
2018-01-22T23:35:02.178Z,31.07
2018-01-22T23:37:30.012Z,30.83
2018-01-22T23:39:57.739Z,25.07
2018-01-22T23:42:25.469Z,26.93
2018-01-22T23:44:53.310Z,30.70
2018-01-22T23:47:21.054Z,32.33
2018-01-22T23:49:48.793Z,29.87
2018-01-22T23:52:16.546Z,34.70
2018-01-22T23:54:44.366Z,28.10
2018-01-22T23:57:12.113Z,27.13
2018-01-22T23:59:39.831Z,30.10
